Time;durP1;ratioP1;P1;durP2;ratioP2;P2;SDS_P1;SDS_P2;PMS_P1;PMS_P2;Temp;Humidity;BMP_temperature;BMP_pressure;BME280_temperature;BME280_humidity;BME280_pressure;Samples;Min_cycle;Max_cycle;Signal;HPM_P1;HPM_P2
2021/11/22 00:01:23;;;;;;;0.15;0.15;;;;;;;5.14;100.00;101039.81;5073283;28;20059;-54
2021/11/22 00:04:26;;;;;;;0.40;0.40;;;;;;;5.17;100.00;101043.75;5073155;28;20547;-54
2021/11/22 00:07:29;;;;;;;0.40;0.40;;;;;;;5.18;100.00;101050.81;5082005;28;20129;-54
2021/11/22 00:10:34;;;;;;;1.75;0.85;;;;;;;5.11;100.00;101051.69;5075070;28;20048;-54
2021/11/22 00:13:37;;;;;;;0.43;0.43;;;;;;;5.12;100.00;101044.19;5083922;28;20052;-54
2021/11/22 00:16:41;;;;;;;0.25;0.25;;;;;;;5.12;100.00;101047.72;5091814;28;20036;-53
2021/11/22 00:19:44;;;;;;;0.20;0.20;;;;;;;5.09;100.00;101047.78;5087425;28;20150;-54
2021/11/22 00:22:50;;;;;;;0.63;0.63;;;;;;;5.21;100.00;101055.53;5079071;28;20063;-54
2021/11/22 00:25:53;;;;;;;0.20;0.20;;;;;;;5.24;100.00;101046.44;5075262;28;20039;-54
2021/11/22 00:28:55;;;;;;;0.38;0.38;;;;;;;5.17;100.00;101054.78;5079733;28;20035;-54
2021/11/22 00:32:01;;;;;;;0.43;0.40;;;;;;;5.08;100.00;101052.50;5095574;28;20482;-54
2021/11/22 00:35:06;;;;;;;0.47;0.47;;;;;;;5.05;100.00;101069.09;5075668;28;20051;-54
2021/11/22 00:38:09;;;;;;;0.38;0.38;;;;;;;4.92;100.00;101066.06;5075061;28;20044;-54
2021/11/22 00:41:12;;;;;;;0.50;0.50;;;;;;;4.81;100.00;101059.84;5074738;28;20515;-54
2021/11/22 00:44:15;;;;;;;0.90;0.57;;;;;;;4.98;100.00;101071.94;5089479;28;20105;-54
2021/11/22 00:47:19;;;;;;;0.30;0.30;;;;;;;5.01;100.00;101060.06;5075049;28;20043;-54
2021/11/22 00:50:22;;;;;;;2.78;0.50;;;;;;;4.99;100.00;101067.97;5090072;28;20070;-54
2021/11/22 00:53:24;;;;;;;1.08;0.45;;;;;;;5.06;100.00;101067.91;5081655;28;20101;-54
2021/11/22 00:56:29;;;;;;;0.45;0.45;;;;;;;5.07;100.00;101067.50;5094960;28;20058;-54
2021/11/22 00:59:32;;;;;;;1.05;0.63;;;;;;;5.05;100.00;101080.13;5094593;28;20564;-54
2021/11/22 01:02:35;;;;;;;0.30;0.30;;;;;;;5.11;100.00;101078.53;5077447;28;20043;-54
2021/11/22 01:05:39;;;;;;;0.40;0.40;;;;;;;5.09;100.00;101086.44;5073026;28;20040;-54
2021/11/22 01:08:42;;;;;;;0.30;0.30;;;;;;;5.17;100.00;101079.63;5091848;28;20070;-54
2021/11/22 01:11:46;;;;;;;0.20;0.20;;;;;;;5.43;100.00;101089.25;5086370;28;20078;-54
2021/11/22 01:14:48;;;;;;;0.30;0.30;;;;;;;5.37;100.00;101086.91;5091530;28;20391;-54
2021/11/22 01:17:53;;;;;;;0.50;0.50;;;;;;;5.46;100.00;101085.66;5074760;28;20044;-54
2021/11/22 01:20:57;;;;;;;0.20;0.20;;;;;;;5.42;100.00;101080.16;5090784;28;20507;-54
2021/11/22 01:24:00;;;;;;;0.20;0.20;;;;;;;5.38;100.00;101088.50;5081832;28;20083;-54
2021/11/22 01:27:03;;;;;;;2.22;1.35;;;;;;;5.31;100.00;101082.25;5094106;28;20065;-54
2021/11/22 01:30:10;;;;;;;0.20;0.20;;;;;;;5.32;100.00;101083.84;5094887;28;20119;-54
2021/11/22 01:33:14;;;;;;;0.20;0.20;;;;;;;5.45;100.00;101098.69;5078903;28;20051;-54
2021/11/22 01:36:16;;;;;;;0.30;0.30;;;;;;;5.39;100.00;101094.81;5094467;28;20491;-54
2021/11/22 01:39:20;;;;;;;0.40;0.40;;;;;;;5.38;100.00;101096.00;5105544;28;20047;-54
2021/11/22 01:42:22;;;;;;;0.20;0.20;;;;;;;5.26;100.00;101093.75;5094293;28;20071;-54
2021/11/22 01:45:25;;;;;;;0.90;0.90;;;;;;;5.19;100.00;101102.09;5095222;28;20086;-54
2021/11/22 01:48:29;;;;;;;0.10;0.10;;;;;;;5.21;100.00;101110.75;5081311;28;20119;-54
2021/11/22 01:51:32;;;;;;;0.20;0.20;;;;;;;5.28;100.00;101121.75;5079630;28;20043;-54
2021/11/22 01:54:36;;;;;;;0.30;0.30;;;;;;;5.44;100.00;101105.41;5094585;28;20375;-54
2021/11/22 01:57:42;;;;;;;1.00;0.55;;;;;;;5.69;100.00;101111.47;5079597;28;20043;-54
2021/11/22 02:00:55;;;;;;;0.15;0.15;;;;;;;5.66;100.00;101112.28;5079058;28;20078;-54
2021/11/22 02:03:59;;;;;;;0.20;0.20;;;;;;;5.55;100.00;101119.88;5082322;28;20047;-54
2021/11/22 02:07:02;;;;;;;0.20;0.20;;;;;;;5.53;100.00;101111.22;5077042;28;20094;-54
2021/11/22 02:10:07;;;;;;;0.65;0.65;;;;;;;5.54;100.00;101112.81;5085344;28;20490;-54
2021/11/22 02:13:10;;;;;;;0.30;0.30;;;;;;;5.63;100.00;101121.38;5074746;28;20065;-54
2021/11/22 02:16:12;;;;;;;0.20;0.20;;;;;;;5.74;100.00;101122.03;5084562;28;20090;-55
2021/11/22 02:19:15;;;;;;;0.25;0.25;;;;;;;5.72;100.00;101124.44;5091045;28;20050;-54
2021/11/22 02:22:18;;;;;;;0.65;0.65;;;;;;;5.89;100.00;101122.72;5084124;28;20573;-55
2021/11/22 02:25:23;;;;;;;11.80;0.73;;;;;;;5.85;100.00;101138.53;5090997;28;20039;-54
2021/11/22 02:28:27;;;;;;;0.20;0.20;;;;;;;6.04;100.00;101146.25;5084625;28;20494;-54
2021/11/22 02:31:30;;;;;;;0.20;0.20;;;;;;;6.17;100.00;101150.03;5093734;28;20035;-54
2021/11/22 02:34:34;;;;;;;0.10;0.10;;;;;;;6.27;100.00;101148.31;5081776;28;20047;-54
2021/11/22 02:37:38;;;;;;;0.60;0.60;;;;;;;6.31;100.00;101143.53;5076324;28;20079;-54
2021/11/22 02:40:41;;;;;;;0.30;0.30;;;;;;;6.63;100.00;101154.94;5093048;28;20106;-55
2021/11/22 02:43:46;;;;;;;0.38;0.25;;;;;;;6.82;100.00;101163.34;5089143;28;20102;-54
2021/11/22 02:46:49;;;;;;;0.40;0.25;;;;;;;6.95;100.00;101169.13;5086601;28;20047;-54
2021/11/22 02:49:52;;;;;;;0.20;0.20;;;;;;;6.92;100.00;101172.72;5093534;28;20034;-54
2021/11/22 02:52:56;;;;;;;0.22;0.22;;;;;;;7.01;100.00;101170.19;5079963;28;20446;-54
2021/11/22 02:56:06;;;;;;;0.20;0.20;;;;;;;7.13;100.00;101172.38;5073130;28;20392;-54
2021/11/22 02:59:09;;;;;;;0.28;0.28;;;;;;;7.35;100.00;101184.69;5072762;28;20097;-54
2021/11/22 03:02:14;;;;;;;0.70;0.70;;;;;;;7.40;100.00;101186.19;5080435;28;20128;-54
2021/11/22 03:05:17;;;;;;;13.93;1.13;;;;;;;7.47;100.00;101189.63;5092090;28;20043;-54
2021/11/22 03:08:20;;;;;;;0.90;0.90;;;;;;;7.59;100.00;101183.47;5080720;28;20080;-54
2021/11/22 03:11:23;;;;;;;0.20;0.20;;;;;;;7.61;100.00;101175.53;5092911;28;20553;-54
2021/11/22 03:14:27;;;;;;;0.38;0.38;;;;;;;7.40;100.00;101173.13;5081108;28;20055;-54
2021/11/22 03:17:30;;;;;;;3.13;0.30;;;;;;;7.11;100.00;101183.09;5075666;28;20074;-54
2021/11/22 03:20:35;;;;;;;13.90;0.85;;;;;;;6.99;100.00;101183.69;5092852;28;20050;-54
2021/11/22 03:23:41;;;;;;;0.10;0.10;;;;;;;6.91;100.00;101184.97;5092636;28;20118;-54
2021/11/22 03:26:46;;;;;;;0.30;0.30;;;;;;;6.70;100.00;101190.81;5093233;28;20207;-54
2021/11/22 03:29:50;;;;;;;0.15;0.15;;;;;;;6.53;100.00;101189.88;5088470;28;20047;-54
2021/11/22 03:32:52;;;;;;;0.20;0.20;;;;;;;6.42;100.00;101191.19;5072134;28;20055;-54
2021/11/22 03:35:55;;;;;;;0.20;0.20;;;;;;;6.27;100.00;101189.81;5072357;28;20523;-54
2021/11/22 03:39:00;;;;;;;0.20;0.20;;;;;;;6.13;100.00;101192.75;5084200;28;20078;-54
2021/11/22 03:42:07;;;;;;;0.10;0.10;;;;;;;6.01;100.00;101194.06;5092535;28;20050;-54
2021/11/22 03:45:11;;;;;;;0.30;0.30;;;;;;;5.87;100.00;101197.75;5092946;28;20071;-54
2021/11/22 03:48:15;;;;;;;0.32;0.32;;;;;;;5.73;100.00;101192.34;5079190;28;20039;-54
2021/11/22 03:51:19;;;;;;;0.25;0.25;;;;;;;5.63;100.00;101198.00;5091057;28;20071;-54
2021/11/22 03:54:22;;;;;;;1.20;0.52;;;;;;;5.48;100.00;101202.84;5087731;28;20218;-54
2021/11/22 03:57:27;;;;;;;0.22;0.22;;;;;;;5.33;100.00;101196.66;5082912;28;20150;-54
2021/11/22 04:00:31;;;;;;;0.35;0.35;;;;;;;5.24;100.00;101203.84;5086392;28;20051;-54
2021/11/22 04:03:34;;;;;;;0.10;0.10;;;;;;;5.26;100.00;101205.00;5078587;28;20504;-54
2021/11/22 04:06:37;;;;;;;0.20;0.20;;;;;;;5.32;100.00;101211.66;5078749;28;20035;-49
2021/11/22 04:09:40;;;;;;;0.40;0.40;;;;;;;5.27;100.00;101208.53;5078831;28;20062;-49
2021/11/22 04:12:43;;;;;;;0.40;0.40;;;;;;;5.23;100.00;101221.59;5078673;28;20090;-50
2021/11/22 04:15:46;;;;;;;1.67;1.40;;;;;;;5.24;100.00;101220.41;5078881;28;20039;-49
2021/11/22 04:18:49;;;;;;;1.95;1.55;;;;;;;5.21;100.00;101226.75;5078787;28;20431;-49
2021/11/22 04:21:52;;;;;;;0.28;0.28;;;;;;;5.10;100.00;101226.03;5079047;28;20039;-49
2021/11/22 04:24:55;;;;;;;0.77;0.77;;;;;;;5.07;100.00;101237.88;5083426;28;20527;-49
2021/11/22 04:27:58;;;;;;;0.22;0.22;;;;;;;5.00;100.00;101237.94;5078696;28;20038;-49
2021/11/22 04:31:02;;;;;;;0.50;0.50;;;;;;;4.91;100.00;101232.06;5078305;28;20047;-49
2021/11/22 04:34:05;;;;;;;0.30;0.30;;;;;;;4.89;100.00;101231.69;5077368;28;20046;-49
2021/11/22 04:37:07;;;;;;;0.98;0.95;;;;;;;4.80;100.00;101236.88;5078006;28;20047;-49
2021/11/22 04:40:14;;;;;;;0.45;0.35;;;;;;;4.73;100.00;101234.94;5078982;28;20044;-49
2021/11/22 04:43:18;;;;;;;0.55;0.38;;;;;;;4.73;100.00;101239.66;5078821;28;20074;-49
2021/11/22 04:46:21;;;;;;;0.30;0.30;;;;;;;4.60;100.00;101245.63;5078349;28;20496;-49
2021/11/22 04:49:23;;;;;;;0.50;0.50;;;;;;;4.48;100.00;101246.06;5078142;28;20044;-50
2021/11/22 04:52:27;;;;;;;0.43;0.43;;;;;;;4.39;100.00;101255.97;5078137;28;20047;-49
2021/11/22 04:55:30;;;;;;;3.83;0.77;;;;;;;4.28;100.00;101256.00;5078216;28;20538;-49
2021/11/22 04:58:33;;;;;;;0.30;0.30;;;;;;;4.18;100.00;101253.28;5076511;28;20039;-49
2021/11/22 05:01:37;;;;;;;0.30;0.30;;;;;;;4.19;100.00;101249.31;5074757;28;20039;-49
2021/11/22 05:04:40;;;;;;;0.57;0.57;;;;;;;4.04;100.00;101259.59;5074838;28;20051;-49
2021/11/22 05:07:44;;;;;;;0.30;0.30;;;;;;;4.00;100.00;101258.81;5074300;28;20087;-49
2021/11/22 05:10:46;;;;;;;0.13;0.13;;;;;;;4.05;100.00;101258.41;5074680;28;20047;-49
2021/11/22 05:13:49;;;;;;;0.47;0.40;;;;;;;3.96;100.00;101266.31;5073453;28;20108;-49
2021/11/22 05:16:53;;;;;;;0.43;0.43;;;;;;;3.91;100.00;101260.41;5074490;28;20063;-49
2021/11/22 05:19:56;;;;;;;0.38;0.38;;;;;;;3.78;100.00;101274.59;5074905;28;20039;-49
2021/11/22 05:23:00;;;;;;;0.55;0.55;;;;;;;3.70;100.00;101283.28;5084336;28;20047;-49
2021/11/22 05:26:03;;;;;;;0.30;0.30;;;;;;;3.64;100.00;101287.56;5074400;28;20043;-49
2021/11/22 05:29:08;;;;;;;0.30;0.30;;;;;;;3.60;100.00;101286.78;5074444;28;20120;-49
2021/11/22 05:32:16;;;;;;;0.30;0.30;;;;;;;3.57;100.00;101296.63;5074852;28;20058;-49
2021/11/22 05:35:19;;;;;;;0.30;0.30;;;;;;;3.62;100.00;101303.72;5077368;28;20052;-49
2021/11/22 05:38:22;;;;;;;0.50;0.50;;;;;;;3.62;100.00;101304.50;5075042;28;20396;-49
2021/11/22 05:41:25;;;;;;;1.17;1.10;;;;;;;3.58;100.00;101306.47;5079375;28;20078;-49
2021/11/22 05:44:32;;;;;;;0.30;0.30;;;;;;;3.62;100.00;101323.00;5074512;28;20043;-49
2021/11/22 05:47:35;;;;;;;1.60;0.88;;;;;;;3.61;100.00;101318.69;5074679;28;20043;-49
2021/11/22 05:50:38;;;;;;;0.32;0.32;;;;;;;3.56;100.00;101327.31;5074184;28;20074;-49
2021/11/22 05:53:43;;;;;;;0.43;0.22;;;;;;;3.51;100.00;101330.47;5073943;28;20051;-49
2021/11/22 05:56:46;;;;;;;0.82;0.75;;;;;;;3.45;100.00;101337.53;5073655;28;20039;-49
2021/11/22 05:59:50;;;;;;;0.38;0.38;;;;;;;3.30;100.00;101331.22;5073602;28;20549;-49
2021/11/22 06:02:53;;;;;;;0.90;0.90;;;;;;;3.28;100.00;101346.53;5073836;28;20035;-49
2021/11/22 06:05:57;;;;;;;1.45;1.00;;;;;;;3.22;100.00;101353.63;5073777;28;20465;-49
2021/11/22 06:09:00;;;;;;;0.40;0.40;;;;;;;3.22;100.00;101340.66;5073693;28;20099;-49
2021/11/22 06:12:04;;;;;;;0.88;0.88;;;;;;;3.18;100.00;101361.06;5072920;28;20400;-49
2021/11/22 06:15:09;;;;;;;0.20;0.20;;;;;;;3.22;100.00;101356.38;5073727;28;20098;-49
2021/11/22 06:18:13;;;;;;;1.58;1.48;;;;;;;3.14;100.00;101366.56;5073453;28;20039;-49
2021/11/22 06:21:16;;;;;;;1.13;0.50;;;;;;;3.10;100.00;101365.00;5073391;28;20051;-49
2021/11/22 06:24:19;;;;;;;0.40;0.40;;;;;;;3.08;100.00;101374.41;5073405;28;20039;-49
2021/11/22 06:27:24;;;;;;;1.05;0.65;;;;;;;3.08;100.00;101390.13;5073891;28;20424;-49
2021/11/22 06:30:27;;;;;;;0.38;0.38;;;;;;;3.12;100.00;101388.16;5073173;28;20043;-49
2021/11/22 06:33:30;;;;;;;0.52;0.52;;;;;;;3.12;100.00;101398.41;5073480;28;20052;-49
2021/11/22 06:36:34;;;;;;;1.98;0.65;;;;;;;3.06;100.00;101401.53;5073212;28;20500;-49
2021/11/22 06:39:38;;;;;;;0.90;0.90;;;;;;;3.03;100.00;101393.28;5072830;28;20039;-49
2021/11/22 06:42:41;;;;;;;0.30;0.30;;;;;;;2.96;100.00;101405.03;5073218;28;20051;-49
2021/11/22 06:45:44;;;;;;;0.38;0.38;;;;;;;2.99;100.00;101411.69;5072478;28;20044;-49
2021/11/22 06:48:47;;;;;;;0.60;0.60;;;;;;;2.99;100.00;101415.25;5072892;28;20038;-49
2021/11/22 06:51:51;;;;;;;13.13;0.95;;;;;;;2.98;100.00;101408.19;5072790;28;20044;-49
2021/11/22 06:54:57;;;;;;;0.68;0.68;;;;;;;2.94;100.00;101418.38;5072735;28;20039;-48
2021/11/22 06:58:01;;;;;;;0.85;0.82;;;;;;;2.97;100.00;101422.31;5072960;28;20047;-48
2021/11/22 07:01:04;;;;;;;0.50;0.50;;;;;;;2.95;100.00;101419.94;5072631;28;20043;-49
2021/11/22 07:04:06;;;;;;;0.85;0.82;;;;;;;2.95;100.00;101419.94;5072630;28;20082;-49
2021/11/22 07:07:10;;;;;;;1.08;1.08;;;;;;;2.96;100.00;101423.50;5072641;28;20035;-49
2021/11/22 07:10:14;;;;;;;6.50;2.25;;;;;;;2.92;100.00;101420.72;5072403;28;20043;-48
2021/11/22 07:13:18;;;;;;;1.00;1.00;;;;;;;2.90;100.00;101431.31;5072730;28;20063;-48
2021/11/22 07:16:21;;;;;;;2.60;1.23;;;;;;;2.94;100.00;101434.09;5072104;28;20462;-49
2021/11/22 07:19:25;;;;;;;14.48;1.13;;;;;;;2.92;100.00;101437.22;5072054;28;20059;-48
2021/11/22 07:22:28;;;;;;;4.72;1.33;;;;;;;2.91;100.00;101440.38;5075103;28;20042;-49
2021/11/22 07:25:31;;;;;;;5.72;1.95;;;;;;;2.93;100.00;101444.31;5072338;28;20040;-49
2021/11/22 07:28:36;;;;;;;0.63;0.63;;;;;;;2.86;100.00;101448.97;5072101;28;20393;-49
2021/11/22 07:31:39;;;;;;;1.48;1.00;;;;;;;2.81;100.00;101457.59;5072361;28;20044;-48
2021/11/22 07:34:42;;;;;;;1.45;1.35;;;;;;;2.79;100.00;101460.75;5071894;28;20059;-49
2021/11/22 07:37:46;;;;;;;2.15;1.55;;;;;;;2.80;100.00;101467.81;5072187;28;20219;-49
2021/11/22 07:40:50;;;;;;;0.80;0.80;;;;;;;2.78;100.00;101464.66;5072112;28;20050;-49
2021/11/22 07:43:53;;;;;;;0.85;0.85;;;;;;;2.81;100.00;101469.41;5089452;28;20549;-49
2021/11/22 07:46:58;;;;;;;0.77;0.77;;;;;;;2.77;100.00;101468.56;5072042;28;20396;-48
2021/11/22 07:50:01;;;;;;;1.55;0.98;;;;;;;2.78;100.00;101470.16;5086917;28;20438;-49
2021/11/22 07:53:04;;;;;;;3.40;0.85;;;;;;;2.78;100.00;101480.38;5072016;28;20051;-48
2021/11/22 07:56:07;;;;;;;1.75;1.33;;;;;;;2.74;100.00;101477.59;5071966;28;20610;-48
2021/11/22 07:59:11;;;;;;;0.73;0.73;;;;;;;2.70;100.00;101485.06;5072236;28;20046;-48
2021/11/22 08:02:15;;;;;;;10.02;2.15;;;;;;;2.72;100.00;101492.91;5090023;28;20039;-49
2021/11/22 08:05:20;;;;;;;1.63;1.52;;;;;;;2.67;100.00;101501.50;5087841;28;20142;-50
2021/11/22 08:08:26;;;;;;;2.03;1.83;;;;;;;2.71;100.00;101505.88;5076709;28;20098;-49
2021/11/22 08:11:32;;;;;;;1.20;1.17;;;;;;;2.67;100.00;101501.50;5071764;28;20039;-49
2021/11/22 08:14:41;;;;;;;9.57;2.08;;;;;;;2.70;100.00;101512.56;5071968;28;20079;-48
2021/11/22 08:17:44;;;;;;;1.48;1.38;;;;;;;2.71;100.00;101518.81;5078393;28;20429;-48
2021/11/22 08:20:47;;;;;;;1.27;1.20;;;;;;;2.72;100.00;101523.16;5071476;28;20046;-49
2021/11/22 08:23:50;;;;;;;4.55;1.08;;;;;;;2.71;100.00;101514.13;5076996;28;20043;-49
2021/11/22 08:26:53;;;;;;;8.32;3.05;;;;;;;2.71;100.00;101519.63;5071177;28;20047;-49
2021/11/22 08:29:57;;;;;;;1.83;1.25;;;;;;;2.68;100.00;101514.91;5071557;28;20055;-55
2021/11/22 08:33:01;;;;;;;3.45;1.55;;;;;;;2.74;100.00;101513.38;5088182;28;20143;-55
2021/11/22 08:36:04;;;;;;;4.70;2.15;;;;;;;2.73;100.00;101517.28;5079220;28;20060;-55
2021/11/22 08:39:07;;;;;;;6.65;2.45;;;;;;;2.72;100.00;101521.22;5075179;28;20499;-55
2021/11/22 08:42:10;;;;;;;4.80;1.63;;;;;;;2.76;100.00;101533.03;5086887;28;20556;-55
2021/11/22 08:45:15;;;;;;;1.50;1.40;;;;;;;2.76;100.00;101527.53;5091714;28;20043;-54
2021/11/22 08:48:19;;;;;;;2.05;1.92;;;;;;;2.80;100.00;101533.03;5075166;28;20051;-53
2021/11/22 08:51:23;;;;;;;8.98;2.17;;;;;;;2.81;100.00;101546.44;5079498;28;20081;-54
2021/11/22 08:54:26;;;;;;;4.18;2.25;;;;;;;2.91;100.00;101547.66;5094952;28;20564;-54
2021/11/22 08:57:30;;;;;;;8.90;2.22;;;;;;;2.95;100.00;101546.53;5089392;28;20094;-54
2021/11/22 09:00:37;;;;;;;1.63;1.58;;;;;;;2.96;100.00;101541.81;5073917;28;20409;-47
2021/11/22 09:03:41;;;;;;;0.73;0.73;;;;;;;3.13;100.00;101545.84;5074354;28;20079;-48
2021/11/22 09:06:44;;;;;;;1.35;1.25;;;;;;;3.18;100.00;101554.53;5074697;28;20079;-48
2021/11/22 09:09:47;;;;;;;7.63;1.55;;;;;;;3.23;100.00;101562.44;5074669;28;20085;-47
2021/11/22 09:12:51;;;;;;;1.95;1.85;;;;;;;3.25;100.00;101553.81;5074488;28;20568;-47
2021/11/22 09:15:54;;;;;;;1.65;1.55;;;;;;;3.27;100.00;101559.72;5082380;28;20109;-48
2021/11/22 09:18:59;;;;;;;8.00;1.00;;;;;;;3.33;100.00;101555.41;5073389;28;20151;-48
2021/11/22 09:22:03;;;;;;;1.30;1.30;;;;;;;3.41;100.00;101552.31;5086292;28;20043;-48
2021/11/22 09:25:08;;;;;;;9.95;1.80;;;;;;;3.43;100.00;101555.47;5072218;28;20094;-48
2021/11/22 09:28:11;;;;;;;2.08;1.33;;;;;;;3.49;100.00;101564.13;5072269;28;20039;-48
2021/11/22 09:31:15;;;;;;;2.25;1.77;;;;;;;3.55;100.00;101568.13;5073800;28;20051;-48
2021/11/22 09:34:18;;;;;;;5.57;2.15;;;;;;;3.62;100.00;101568.13;5073912;28;20491;-48
2021/11/22 09:37:21;;;;;;;3.60;2.65;;;;;;;3.74;100.00;101562.31;5073628;28;20048;-48
2021/11/22 09:40:24;;;;;;;3.70;1.88;;;;;;;3.80;100.00;101563.50;5073662;28;20039;-48
2021/11/22 09:43:29;;;;;;;3.08;2.88;;;;;;;3.91;100.00;101566.31;5073893;28;20059;-48
2021/11/22 09:46:32;;;;;;;0.80;0.80;;;;;;;3.93;100.00;101575.75;5074227;28;20063;-48
2021/11/22 09:49:35;;;;;;;2.60;2.28;;;;;;;4.03;100.00;101580.50;5090709;28;20074;-48
2021/11/22 09:52:39;;;;;;;1.92;1.05;;;;;;;4.08;100.00;101584.84;5073744;28;20038;-48
2021/11/22 09:55:42;;;;;;;6.13;2.45;;;;;;;4.13;100.00;101577.00;5072948;28;20089;-48
2021/11/22 09:58:45;;;;;;;3.22;1.95;;;;;;;4.23;100.00;101587.28;5073213;28;20090;-48
2021/11/22 10:01:54;;;;;;;1.45;0.88;;;;;;;4.37;100.00;101587.31;5073730;28;20081;-48
2021/11/22 10:05:16;;;;;;;0.40;0.40;;;;;;;4.48;100.00;101588.09;5073639;28;20051;-47
2021/11/22 10:08:22;;;;;;;;;;;;;;;4.55;100.00;101588.13;5073891;28;20039;-47
2021/11/22 10:11:25;;;;;;;1.83;1.58;;;;;;;4.63;100.00;101590.91;5073596;28;19923;-48
2021/11/22 10:14:34;;;;;;;3.22;0.65;;;;;;;4.72;100.00;101591.31;5073635;28;20135;-48
2021/11/22 10:17:39;;;;;;;1.77;0.82;;;;;;;4.76;100.00;101592.09;5073260;28;20511;-49
2021/11/22 10:20:42;;;;;;;0.55;0.55;;;;;;;4.85;100.00;101592.50;5073248;28;20071;-48
2021/11/22 10:23:47;;;;;;;0.65;0.65;;;;;;;4.93;100.00;101586.56;5085902;28;20035;-48
2021/11/22 10:26:51;;;;;;;0.32;0.32;;;;;;;4.99;100.00;101595.22;5072683;28;20417;-49
2021/11/22 10:30:34;;;;;;;0.95;0.95;;;;;;;5.10;100.00;101596.00;5072728;28;20115;-48
2021/11/22 10:33:39;;;;;;;1.75;1.48;;;;;;;5.26;100.00;101590.88;5072271;28;20047;-48
2021/11/22 10:36:42;;;;;;;0.60;0.60;;;;;;;5.40;100.00;101599.13;5072549;28;20044;-48
2021/11/22 10:39:45;;;;;;;0.85;0.70;;;;;;;5.45;100.00;101593.22;5072148;28;20039;-48
2021/11/22 10:42:48;;;;;;;0.90;0.50;;;;;;;5.54;100.00;101588.06;5072302;28;20060;-48
2021/11/22 10:45:52;;;;;;;2.58;1.02;;;;;;;5.61;100.00;101582.50;5072149;28;20059;-48
2021/11/22 10:49:16;;;;;;;5.15;0.98;;;;;;;5.67;100.00;101580.13;5072211;28;20106;-48
2021/11/22 10:52:37;;;;;;;0.55;0.52;;;;;;;5.68;100.00;101584.44;5072632;28;20111;-48
2021/11/22 10:55:47;;;;;;;0.20;0.20;;;;;;;5.70;100.00;101582.84;5071657;28;20067;-48
2021/11/22 10:58:54;;;;;;;0.30;0.22;;;;;;;5.86;100.00;101572.19;5072068;28;20092;-48
2021/11/22 11:01:57;;;;;;;0.30;0.30;;;;;;;5.97;100.00;101578.44;5071884;28;20048;-48
2021/11/22 11:05:00;;;;;;;1.00;0.55;;;;;;;6.03;100.00;101571.31;5072265;28;20143;-48
2021/11/22 11:08:06;;;;;;;0.32;0.32;;;;;;;6.07;100.00;101569.31;5071420;28;20116;-48
2021/11/22 11:11:12;;;;;;;0.30;0.30;;;;;;;6.17;100.00;101577.97;5071795;28;20046;-48
2021/11/22 11:14:16;;;;;;;0.68;0.60;;;;;;;6.28;100.00;101581.44;5071914;28;20035;-48
2021/11/22 11:17:25;;;;;;;1.15;0.63;;;;;;;6.40;100.00;101569.91;5071845;28;20047;-48
2021/11/22 11:20:29;;;;;;;0.47;0.47;;;;;;;6.65;100.00;101565.75;5071982;28;20047;-48
2021/11/22 11:23:32;;;;;;;1.55;0.52;;;;;;;6.86;100.00;101571.13;5085378;28;20462;-48
2021/11/22 11:26:38;;;;;;;1.08;1.00;;;;;;;7.06;100.00;101571.34;5071269;28;20562;-48
2021/11/22 11:29:42;;;;;;;1.27;0.82;;;;;;;7.10;100.00;101572.13;5071782;28;20039;-48
2021/11/22 11:32:46;;;;;;;0.20;0.20;;;;;;;7.10;100.00;101566.59;5072154;28;20094;-48
2021/11/22 11:35:50;;;;;;;0.63;0.63;;;;;;;7.02;100.00;101570.59;5071490;28;20128;-49
2021/11/22 11:39:31;;;;;;;0.60;0.35;;;;;;;7.18;100.00;101568.09;5059405;28;20112;-48
2021/11/22 11:42:53;;;;;;;2.05;0.80;;;;;;;7.26;100.00;101574.31;5071435;28;20167;-48
2021/11/22 11:46:14;;;;;;;;;;;;;;;7.34;100.00;101565.53;5072354;28;20047;-48
2021/11/22 11:49:30;;;;;;;4.40;0.82;;;;;;;7.49;100.00;101572.50;5072334;28;20284;-48
2021/11/22 11:52:32;;;;;;;9.43;1.33;;;;;;;7.56;100.00;101577.16;5071791;28;20039;-48
2021/11/22 11:55:37;;;;;;;0.30;0.30;;;;;;;7.65;100.00;101569.94;5071064;28;20439;-48
2021/11/22 11:58:41;;;;;;;1.65;0.65;;;;;;;7.72;100.00;101584.91;5070797;28;20048;-48
2021/11/22 12:02:27;;;;;;;;;;;;;;;;;;;;;
2021/11/22 12:05:46;;;;;;;1.30;0.63;;;;;;;7.94;100.00;101586.25;5071819;28;20035;-48
2021/11/22 12:08:50;;;;;;;3.15;0.63;;;;;;;8.02;100.00;101582.16;5078327;28;20050;-49
2021/11/22 12:12:20;;;;;;;14.32;0.60;;;;;;;8.13;100.00;101588.38;5078938;28;20048;-49
2021/11/22 12:15:43;;;;;;;;;;;;;;;;;;;;;
2021/11/22 12:19:02;;;;;;;;;;;;;;;;;;;;;
2021/11/22 12:22:15;;;;;;;0.30;0.30;;;;;;;8.25;100.00;101593.38;5075626;28;20078;-49
2021/11/22 12:26:21;;;;;;;0.20;0.20;;;;;;;8.27;100.00;101591.75;5091223;28;20070;-49
2021/11/22 12:29:31;;;;;;;0.45;0.40;;;;;;;8.26;100.00;101592.97;5085386;28;20420;-49
2021/11/22 12:32:35;;;;;;;9.90;0.90;;;;;;;8.26;100.00;101586.63;5079396;28;20079;-49
2021/11/22 12:35:45;;;;;;;0.50;0.50;;;;;;;8.45;100.00;101585.16;5074767;28;20511;-49
2021/11/22 12:43:59;;;;;;;;;;;;;;;;;;;;;
2021/11/22 12:47:12;;;;;;;0.68;0.30;;;;;;;8.60;100.00;101584.53;5075231;28;20070;-48
2021/11/22 12:50:36;;;;;;;;;;;;;;;;;;;;;
2021/11/22 12:54:03;;;;;;;1.40;0.28;;;;;;;8.95;100.00;101578.44;5074837;28;20055;-49
2021/11/22 12:57:24;;;;;;;1.10;0.35;;;;;;;9.05;100.00;101571.88;5085534;28;20132;-49
2021/11/22 13:00:45;;;;;;;3.20;0.85;;;;;;;9.09;100.00;101580.19;5049099;28;20063;-49
2021/11/22 13:04:02;;;;;;;;;;;;;;;;;;;;;
2021/11/22 13:07:33;;;;;;;0.43;0.43;;;;;;;8.54;100.00;101580.66;5056321;28;20624;-50
2021/11/22 13:10:45;;;;;;;0.40;0.40;;;;;;;8.54;100.00;101580.66;5059767;28;20044;-49
2021/11/22 13:14:07;;;;;;;0.98;0.30;;;;;;;8.52;100.00;101571.19;5059765;28;20067;-49
2021/11/22 13:17:15;;;;;;;0.20;0.20;;;;;;;8.58;100.00;101575.84;5066614;28;20047;-49
2021/11/22 13:20:38;;;;;;;;;;;;;;;;;;;;;
2021/11/22 13:28:32;;;;;;;;;;;;;;;;;;;;;
2021/11/22 13:31:47;;;;;;;0.20;0.20;;;;;;;8.83;100.00;101565.16;5061818;28;20421;-49
2021/11/22 13:34:57;;;;;;;3.83;0.60;;;;;;;8.87;100.00;101554.75;5048941;28;20234;-49
2021/11/22 13:38:05;;;;;;;0.63;0.30;;;;;;;8.85;100.00;101551.63;5061611;28;20165;-49
2021/11/22 13:41:20;;;;;;;0.10;0.10;;;;;;;8.95;100.00;101550.63;5046640;28;20274;-49
2021/11/22 13:44:28;;;;;;;0.28;0.28;;;;;;;9.01;100.00;101554.50;5048673;28;20047;-49
2021/11/22 13:47:31;;;;;;;6.70;0.50;;;;;;;9.14;100.00;101561.03;5048641;28;20783;-49
2021/11/22 13:50:47;;;;;;;0.30;0.30;;;;;;;9.07;100.00;101563.91;5047731;28;20106;-49
2021/11/22 13:53:57;;;;;;;0.35;0.35;;;;;;;9.00;100.00;101552.94;5048928;28;20085;-49
2021/11/22 13:57:19;;;;;;;0.65;0.65;;;;;;;8.94;100.00;101564.97;5057056;28;20043;-49
2021/11/22 14:00:23;;;;;;;0.20;0.20;;;;;;;8.84;100.00;101560.34;5071651;28;20035;-49
2021/11/22 14:03:33;;;;;;;0.32;0.32;;;;;;;8.89;100.00;101552.34;5062680;28;20039;-49
2021/11/22 14:06:54;;;;;;;;;;;;;;;;;;;;;
2021/11/22 14:10:51;;;;;;;1.08;0.90;;;;;;;8.80;100.00;101549.31;5063233;28;20858;-54
2021/11/22 14:14:32;;;;;;;0.13;0.13;;;;;;;8.70;100.00;101546.72;5061995;28;20097;-53
2021/11/22 14:17:49;;;;;;;0.75;0.50;;;;;;;8.63;100.00;101547.63;5076969;28;20114;-53
2021/11/22 14:20:57;;;;;;;0.20;0.20;;;;;;;8.57;100.00;101540.97;5066752;28;20109;-53
2021/11/22 14:24:35;;;;;;;;;;;;;;;;;;;;;
2021/11/22 14:27:55;;;;;;;;;;;;;;;;;;;;;
2021/11/22 14:31:43;;;;;;;6.35;0.60;;;;;;;8.28;100.00;101551.72;5060318;28;20032;-53
2021/11/22 14:35:46;;;;;;;1.88;0.20;;;;;;;8.14;100.00;101556.66;5059968;28;20039;-52
2021/11/22 14:39:01;;;;;;;0.10;0.10;;;;;;;8.06;100.00;101560.72;5047853;28;20494;-55
2021/11/22 14:42:11;;;;;;;0.20;0.20;;;;;;;8.05;100.00;101559.16;5063253;28;20109;-52
2021/11/22 14:45:15;;;;;;;0.30;0.30;;;;;;;8.03;100.00;101558.78;5051902;28;20039;-51
2021/11/22 14:48:33;;;;;;;0.10;0.10;;;;;;;8.00;100.00;101557.63;5048497;28;20098;-53
2021/11/22 14:51:59;;;;;;;;;;;;;;;;;;;;;
2021/11/22 14:55:18;;;;;;;2.83;0.43;;;;;;;7.92;100.00;101563.69;5057329;28;20055;-52
2021/11/22 14:58:46;;;;;;;0.13;0.13;;;;;;;7.89;100.00;101565.28;5050309;28;20511;-49
2021/11/22 15:01:59;;;;;;;7.63;0.60;;;;;;;7.84;100.00;101568.53;5048970;28;20040;-49